Kyst — LHYE — position and weather

sailwx.info

Track history (hours):
 
Tides and Currents Weather Stations Pressure Air Temp Water Temp Dewpoint Dewpoint Depression Visibility Wind Speed Wind Dir Waves Ship Positions

Kyst

Last reported at 2018-May-24 07:59 UTC. Time now 2018-May-24 08:05 UTC.
Position N 65°51' E 013°11'.

Length 48 m; draft 4.2 m.

Type: Cargo ship. MMSI: 259336000.

Date/timePositionNaut miles runAvg speedWind from/ knotsBaromVisibWave heightAir tempDewpointWater temp
2018-May-24 07:59N 65°51' E 013°11'0 0.0
2018-May-24 07:29N 65°51' E 013°11'0 0.0
2018-May-24 06:59N 65°51' E 013°11'0 0.0
2018-May-24 06:30N 65°51' E 013°11'0 0.2
2018-May-24 06:00N 65°51' E 013°11'3 7.1
2018-May-24 05:30N 65°54' E 013°07'4 7.6
2018-May-24 05:00N 65°56' E 012°59'4 6.9
2018-May-24 04:29N 65°59' E 012°52'3 6.6
2018-May-24 03:59N 65°57' E 012°45'3 6.9
2018-May-24 03:30N 65°55' E 012°38'3 6.8
2018-May-24 03:00N 65°52' E 012°34'3 6.9
2018-May-24 02:30N 65°49' E 012°29'3 7.1
2018-May-24 02:00N 65°47' E 012°23'3 6.6
2018-May-24 01:30N 65°44' E 012°18'3 6.6
2018-May-24 01:00N 65°41' E 012°16'4 7.3
2018-May-24 00:30N 65°38' E 012°15'3 6.9
2018-May-24 00:00N 65°34' E 012°14'4 7.3
2018-May-23 23:29N 65°30' E 012°12'3 6.0
2018-May-23 23:00N 65°28' E 012°11'4 8.1
2018-May-23 22:30N 65°24' E 012°07'4 7.8
2018-May-23 22:00N 65°20' E 012°02'4 8.1
2018-May-23 21:30N 65°17' E 011°58'4 8.7
2018-May-23 21:00N 65°13' E 011°55'4 8.3
2018-May-23 20:30N 65°12' E 012°05'5 9.0
2018-May-23 20:00N 65°12' E 012°16'8 0.5
2018-May-23 04:20N 65°07' E 012°30'3 6.7
2018-May-23 03:53N 65°09' E 012°23'3 8.3
2018-May-23 03:29N 65°11' E 012°18'4 7.6
2018-May-23 03:01N 65°13' E 012°11'4 8.2
2018-May-23 02:30N 65°12' E 012°01'3 6.2
2018-May-23 02:01N 65°14' E 011°55'4 8.6
2018-May-23 01:30N 65°18' E 011°58'4 9.0
2018-May-23 01:00N 65°22' E 012°04'5 9.2
2018-May-23 00:30N 65°26' E 012°09'4 7.3
2018-May-23 00:00N 65°29' E 012°13'4 8.5
2018-May-22 23:30N 65°33' E 012°13'4 8.8
2018-May-22 23:01N 65°37' E 012°15'5 8.9
2018-May-22 22:30N 65°42' E 012°17'5 9.0
2018-May-22 22:00N 65°46' E 012°21'5 9.5
2018-May-22 21:29N 65°50' E 012°29'5 9.4
2018-May-22 20:59N 65°54' E 012°36'4 9.1
2018-May-22 20:30N 65°57' E 012°43'4 8.7
2018-May-22 20:00N 65°58' E 012°53'4 8.9
2018-May-22 19:30N 65°56' E 013°02'4 8.6
2018-May-22 18:59N 65°53' E 013°09'2 3.6
2018-May-22 18:30N 65°51' E 013°11'0 0.0
2018-May-22 17:59N 65°51' E 013°11'0 0.0
2018-May-22 17:30N 65°51' E 013°11'0 0.0
2018-May-22 17:00N 65°51' E 013°11'0 0.0
2018-May-22 16:27N 65°51' E 013°11'0 0.0
2018-May-22 15:54N 65°51' E 013°11'0 0.0
2018-May-22 15:29N 65°51' E 013°11'0 0.0
2018-May-22 15:00N 65°51' E 013°11'0 0.0
2018-May-22 14:29N 65°51' E 013°11'0 0.0
2018-May-22 14:00N 65°51' E 013°11'0 0.0
2018-May-22 13:30N 65°51' E 013°11'0 0.1
2018-May-22 12:58N 65°51' E 013°11'0 0.0
2018-May-22 12:28N 65°51' E 013°11'0 0.0
2018-May-22 12:01N 65°51' E 013°11'0 0.0
2018-May-22 11:31N 65°51' E 013°11'0 0.0
2018-May-22 10:58N 65°51' E 013°11'0 0.0
2018-May-22 10:31N 65°51' E 013°11'0 0.0
2018-May-22 09:56N 65°51' E 013°11'0 0.0
2018-May-22 09:30N 65°51' E 013°11'0 0.0
2018-May-22 09:00N 65°51' E 013°11'1 2.0
2018-May-22 08:30N 65°52' E 013°10'3 6.4
2018-May-22 08:00N 65°55' E 013°06'4 7.1
2018-May-22 07:29N 65°57' E 012°58'3 6.2
2018-May-22 06:59N 65°59' E 012°54'3 6.5
2018-May-22 06:29N 66°02' E 012°56'3 6.1
2018-May-22 06:00N 66°03' E 012°49'3 6.4
2018-May-22 05:29N 66°02' E 012°41'2 3.7
2018-May-22 05:00N 66°04' E 012°39'3 6.3
2018-May-22 04:29N 66°06' E 012°44'3 6.2
2018-May-22 03:59N 66°09' E 012°48'3 6.0
2018-May-22 03:29N 66°12' E 012°51'3 6.5
2018-May-22 03:00N 66°15' E 012°54'3 6.5
2018-May-22 02:30N 66°18' E 012°55'3 6.3
2018-May-22 02:00N 66°21' E 012°57'3 5.6
2018-May-22 01:29N 66°24' E 012°58'3 6.1
2018-May-22 01:00N 66°27' E 012°59'3 6.2
2018-May-22 00:30N 66°30' E 012°59'3 5.5
2018-May-22 00:00N 66°32' E 012°58'3 6.3
2018-May-21 23:30N 66°34' E 013°05'3 6.5
2018-May-21 22:59N 66°38' E 013°05'3 6.7
2018-May-21 22:30N 66°41' E 013°08'3 6.6
2018-May-21 22:00N 66°44' E 013°11'3 6.2
2018-May-21 21:29N 66°47' E 013°14'3 6.6
2018-May-21 21:00N 66°50' E 013°16'3 6.6
2018-May-21 20:30N 66°52' E 013°21'3 6.6
2018-May-21 20:00N 66°55' E 013°27'3 5.7
2018-May-21 19:30N 66°57' E 013°29'3 6.1
2018-May-21 19:00N 66°59' E 013°35'3 6.5
2018-May-21 18:30N 67°01' E 013°42'3 6.6
2018-May-21 18:00N 67°03' E 013°49'3 6.6
2018-May-21 17:30N 67°05' E 013°55'3 6.4
2018-May-21 17:00N 67°07' E 014°01'3 6.1
2018-May-21 16:30N 67°10' E 014°04'3 5.5
2018-May-21 16:00N 67°12' E 014°09'3 6.1
2018-May-21 15:30N 67°15' E 014°14'3 6.1
2018-May-21 15:00N 67°16' E 014°20'2 3.3
2018-May-21 14:29N 67°18' E 014°23'0 0.0
2018-May-21 14:00N 67°18' E 014°23'0 0.0
2018-May-21 13:29N 67°18' E 014°23'0 0.0
2018-May-21 12:58N 67°18' E 014°23'0 0.0
2018-May-21 12:29N 67°18' E 014°23'0 0.0
2018-May-21 12:01N 67°18' E 014°23'0 0.0
2018-May-21 11:29N 67°18' E 014°23'0 0.0
2018-May-21 11:01N 67°18' E 014°23'0 0.0
2018-May-21 10:30N 67°18' E 014°23'0 0.6
2018-May-21 09:58N 67°17' E 014°24'0 0.0
2018-May-21 09:31N 67°17' E 014°24'0 0.0
2018-May-21 09:00N 67°17' E 014°24'0 0.0
2018-May-21 08:31N 67°17' E 014°24'0 0.2
2018-May-21 08:01N 67°17' E 014°24'2 3.3
2018-May-21 07:30N 67°19' E 014°23'4 7.1
2018-May-21 07:00N 67°22' E 014°28'4 7.1
2018-May-21 06:30N 67°25' E 014°32'3 6.9
2018-May-21 06:00N 67°28' E 014°36'3 6.2
2018-May-21 05:30N 67°31' E 014°40'4 7.2
2018-May-21 05:00N 67°34' E 014°45'3 6.7
2018-May-21 04:30N 67°38' E 014°46'4 7.1
2018-May-21 04:00N 67°41' E 014°42'3 6.6
2018-May-21 03:30N 67°44' E 014°42'3 5.9
2018-May-21 03:00N 67°46' E 014°36'2 5.0
2018-May-21 02:30N 67°48' E 014°33'3 6.5
2018-May-21 02:00N 67°50' E 014°38'3 6.6
2018-May-21 01:29N 67°53' E 014°44'3 6.9
2018-May-21 01:00N 67°57' E 014°44'3 6.2
2018-May-21 00:30N 67°60' E 014°45'3 5.7
2018-May-20 23:59N 68°02' E 014°47'3 5.5
2018-May-20 23:28N 68°05' E 014°48'3 5.4
2018-May-20 23:00N 68°08' E 014°50'3 5.2
2018-May-20 22:30N 68°10' E 014°53'3 5.7
2018-May-20 22:00N 68°13' E 014°55'3 5.9
2018-May-20 21:29N 68°16' E 014°57'4 7.2
2018-May-20 21:00N 68°19' E 014°58'4 7.7
2018-May-20 20:30N 68°23' E 015°04'4 8.7
2018-May-20 19:59N 68°26' E 015°10'3 6.9
2018-May-20 19:30N 68°30' E 015°12'4 7.1
2018-May-20 18:59N 68°33' E 015°10'4 7.2
2018-May-20 18:30N 68°36' E 015°18'1 1.5
2018-May-20 17:59N 68°36' E 015°20'0 0.0
2018-May-20 17:28N 68°36' E 015°20'0 0.0
2018-May-20 16:58N 68°36' E 015°20'0 0.0
2018-May-20 16:30N 68°36' E 015°20'4 7.9
2018-May-20 16:00N 68°39' E 015°24'4 8.1
2018-May-20 15:30N 68°43' E 015°26'4 7.7
2018-May-20 15:00N 68°47' E 015°26'4 7.9
2018-May-20 14:30N 68°51' E 015°29'4 8.4
2018-May-20 14:00N 68°55' E 015°35'4 7.7
2018-May-20 13:30N 68°58' E 015°39'4 7.7
2018-May-20 13:00N 68°59' E 015°50'5 9.3
2018-May-20 12:30N 68°58' E 016°02'5 9.5
2018-May-20 12:00N 68°56' E 016°15'5 9.6
2018-May-20 11:30N 68°53' E 016°25'4 8.9
2018-May-20 11:00N 68°52' E 016°36'5 9.6
2018-May-20 10:30N 68°47' E 016°43'5 9.9
2018-May-20 09:59N 68°43' E 016°49'2 3.6
2018-May-20 09:30N 68°43' E 016°54'5 9.1
2018-May-20 09:00N 68°45' E 017°05'4 7.9
2018-May-20 08:29N 68°48' E 017°10'3 6.4
2018-May-20 07:59N 68°50' E 017°04'0 0.0
2018-May-20 07:31N 68°50' E 017°04'0 0.0
2018-May-20 07:00N 68°50' E 017°04'0 0.0
2018-May-20 06:28N 68°50' E 017°04'0 0.0
2018-May-20 05:59N 68°50' E 017°04'0 0.0
2018-May-20 05:26N 68°50' E 017°04'0 0.0
2018-May-20 05:00N 68°50' E 017°04'0 0.0
2018-May-20 04:28N 68°50' E 017°04'0 0.0
2018-May-20 04:00N 68°50' E 017°04'0 0.0
2018-May-20 03:30N 68°50' E 017°04'0 0.0
2018-May-20 03:00N 68°50' E 017°04'0 0.0
2018-May-20 02:31N 68°50' E 017°04'0 0.0
2018-May-20 02:00N 68°50' E 017°04'0 0.0
2018-May-20 01:31N 68°50' E 017°04'0 0.0
2018-May-20 00:59N 68°50' E 017°04'0 0.0
2018-May-20 00:25N 68°50' E 017°04'0 0.0
2018-May-20 00:01N 68°50' E 017°04'0 0.0
2018-May-19 23:31N 68°50' E 017°04'0 0.0
2018-May-19 23:00N 68°50' E 017°04'0 0.0
2018-May-19 22:30N 68°50' E 017°04'0 0.0
2018-May-19 22:01N 68°50' E 017°04'0 0.0
2018-May-19 21:28N 68°50' E 017°04'0 0.0
2018-May-19 20:59N 68°50' E 017°04'0 0.0
2018-May-19 20:30N 68°50' E 017°04'0 0.0
2018-May-19 20:01N 68°50' E 017°04'0 0.0
2018-May-19 19:31N 68°50' E 017°04'0 0.0
2018-May-19 18:58N 68°50' E 017°04'0 0.0
2018-May-19 18:30N 68°50' E 017°04'0 0.0
2018-May-19 18:00N 68°50' E 017°04'0 0.0
2018-May-19 17:30N 68°50' E 017°04'1 2.6
2018-May-19 17:00N 68°49' E 017°07'4 8.4
2018-May-19 16:29N 68°48' E 017°18'4 9.1
2018-May-19 16:00N 68°51' E 017°27'5 9.3
2018-May-19 15:30N 68°54' E 017°37'2 4.2
2018-May-19 14:58N 68°54' E 017°43'0 0.0
2018-May-19 14:27N 68°54' E 017°43'0 0.0
2018-May-19 13:59N 68°54' E 017°43'0 0.0
2018-May-19 13:18N 68°54' E 017°43'0 0.0
2018-May-19 12:58N 68°54' E 017°43'0 0.0
2018-May-19 12:31N 68°54' E 017°43'0 0.0
2018-May-19 11:59N 68°54' E 017°43'0 0.0
2018-May-19 11:26N 68°54' E 017°43'0 0.0
2018-May-19 10:59N 68°54' E 017°43'0 0.0
2018-May-19 10:30N 68°54' E 017°43'0 0.0
2018-May-19 10:00N 68°54' E 017°43'2 4.2
2018-May-19 09:30N 68°54' E 017°38'5 9.2
2018-May-19 09:00N 68°51' E 017°28'4 9.0
2018-May-19 08:30N 68°48' E 017°19'4 9.0
2018-May-19 08:00N 68°45' E 017°09'4 8.8
2018-May-19 07:30N 68°44' E 016°57'4 7.5
2018-May-19 07:00N 68°44' E 016°47'4 7.7
2018-May-19 06:30N 68°47' E 016°40'3 5.9
2018-May-19 06:00N 68°48' E 016°33'3 5.3
2018-May-19 05:30N 68°51' E 016°32'4 8.5
2018-May-19 05:00N 68°54' E 016°23'4 8.0
2018-May-19 04:30N 68°56' E 016°15'4 7.7
2018-May-19 04:00N 68°58' E 016°04'4 8.0
2018-May-19 03:29N 68°59' E 015°54'4 8.7
2018-May-19 03:00N 68°58' E 015°42'4 8.0
2018-May-19 02:30N 68°55' E 015°35'5 8.6
2018-May-19 01:59N 68°51' E 015°30'4 8.9
2018-May-19 01:30N 68°47' E 015°26'4 9.0
2018-May-19 01:00N 68°43' E 015°26'4 8.4
2018-May-19 00:29N 68°38' E 015°23'3 6.0
2018-May-18 23:58N 68°36' E 015°20'0 0.0
2018-May-18 23:31N 68°36' E 015°20'0 0.0
2018-May-18 23:00N 68°36' E 015°20'1 1.1
2018-May-18 22:29N 68°36' E 015°20'5 9.7
2018-May-18 22:00N 68°40' E 015°25'510.0
2018-May-18 21:29N 68°46' E 015°26'4 9.3
2018-May-18 21:00N 68°50' E 015°28'5 9.4
2018-May-18 20:29N 68°54' E 015°34'4 8.6
2018-May-18 20:00N 68°58' E 015°40'4 8.6
2018-May-18 19:30N 68°59' E 015°51'5 9.3
2018-May-18 19:00N 68°58' E 016°04'5 9.6
2018-May-18 18:30N 68°56' E 016°16'5 9.5
2018-May-18 17:58N 68°53' E 016°27'4 9.0
2018-May-18 17:30N 68°50' E 016°36'5 9.7
2018-May-18 17:00N 68°45' E 016°38'5 9.4
2018-May-18 16:29N 68°40' E 016°39'511.0
2018-May-18 16:00N 68°35' E 016°33'3 6.8
2018-May-18 15:29N 68°32' E 016°38'0 0.0
2018-May-18 14:59N 68°32' E 016°38'0 0.0
2018-May-18 14:29N 68°32' E 016°38'0 0.0
2018-May-18 13:58N 68°32' E 016°38'0 0.0
2018-May-18 13:29N 68°32' E 016°38'0 0.0
2018-May-18 12:58N 68°32' E 016°38'0 0.0
2018-May-18 12:30N 68°32' E 016°38'3 5.2
2018-May-18 12:00N 68°35' E 016°33'4 7.5
2018-May-18 11:29N 68°38' E 016°36'4 7.7
2018-May-18 10:59N 68°42' E 016°40'4 7.4
2018-May-18 10:30N 68°45' E 016°37'4 7.8
2018-May-18 10:00N 68°49' E 016°36'4 8.0
2018-May-18 09:30N 68°52' E 016°29'5 9.1
2018-May-18 09:00N 68°55' E 016°19'4 8.6
2018-May-18 08:30N 68°57' E 016°08'4 8.5
2018-May-18 08:00N 68°58' E 015°57'4 8.5
2018-May-18 07:30N 68°59' E 015°45'4 7.6
2018-May-18 06:58N 68°56' E 015°36'4 8.4
2018-May-18 06:29N 68°53' E 015°32'4 8.6
2018-May-18 06:00N 68°49' E 015°27'5 8.7
2018-May-18 05:29N 68°44' E 015°25'4 8.9
2018-May-18 04:59N 68°40' E 015°25'4 8.6
2018-May-18 04:30N 68°36' E 015°20'1 1.2
2018-May-18 04:01N 68°36' E 015°20'0 0.0
2018-May-18 03:31N 68°36' E 015°20'0 0.0
2018-May-18 03:00N 68°36' E 015°20'3 5.9
2018-May-18 02:29N 68°38' E 015°23'4 7.8
2018-May-18 02:00N 68°42' E 015°26'4 8.9
2018-May-18 01:30N 68°46' E 015°26'4 8.7
2018-May-18 01:00N 68°51' E 015°29'4 8.8
2018-May-18 00:30N 68°55' E 015°35'4 8.0
2018-May-18 00:00N 68°58' E 015°40'4 8.4
2018-May-17 23:30N 68°59' E 015°51'4 8.9
2018-May-17 23:00N 68°58' E 016°03'5 9.2
2018-May-17 22:30N 68°56' E 016°15'5 9.1
2018-May-17 22:00N 68°53' E 016°25'4 8.0
2018-May-17 21:30N 68°51' E 016°34'3 6.4
2018-May-17 21:00N 68°48' E 016°33'0 0.1
2018-May-17 20:31N 68°48' E 016°33'0 0.0
2018-May-17 19:59N 68°48' E 016°33'0 0.0
2018-May-17 19:29N 68°48' E 016°33'0 0.0
2018-May-17 18:57N 68°48' E 016°33'0 0.0
2018-May-17 18:30N 68°48' E 016°33'0 0.0
2018-May-17 17:58N 68°48' E 016°33'0 0.0
2018-May-17 17:30N 68°48' E 016°33'0 0.0
2018-May-17 16:58N 68°48' E 016°33'0 0.0
2018-May-17 16:30N 68°48' E 016°33'0 0.0
2018-May-17 15:58N 68°48' E 016°33'0 0.0
2018-May-17 15:30N 68°48' E 016°33'0 0.0
2018-May-17 15:00N 68°48' E 016°33'0 0.0
2018-May-17 14:28N 68°48' E 016°33'0 0.0
2018-May-17 14:01N 68°48' E 016°33'0 0.0
2018-May-17 13:28N 68°48' E 016°33'0 0.0
2018-May-17 12:58N 68°48' E 016°33'0 0.0
2018-May-17 12:28N 68°48' E 016°33'0 0.0
2018-May-17 12:01N 68°48' E 016°33'0 0.0
2018-May-17 11:29N 68°48' E 016°33'0 0.0
2018-May-17 11:00N 68°48' E 016°33'0 0.0
2018-May-17 10:28N 68°48' E 016°33'0 0.0
2018-May-17 09:58N 68°48' E 016°33'0 0.0
2018-May-17 09:28N 68°48' E 016°33'0 0.0
2018-May-17 09:00N 68°48' E 016°33'0 0.0
2018-May-17 08:30N 68°48' E 016°33'0 0.0
2018-May-17 08:00N 68°48' E 016°33'0 0.0
2018-May-17 07:29N 68°48' E 016°33'0 0.0
2018-May-17 06:54N 68°48' E 016°33'0 0.0
2018-May-17 06:30N 68°48' E 016°33'0 0.0
2018-May-17 05:59N 68°48' E 016°33'0 0.0
2018-May-17 05:28N 68°48' E 016°33'0 0.0
2018-May-17 05:00N 68°48' E 016°33'0 0.0
2018-May-17 04:29N 68°48' E 016°33'0 0.0
2018-May-17 04:00N 68°48' E 016°33'0 0.0
2018-May-17 03:30N 68°48' E 016°33'0 0.0
2018-May-17 03:00N 68°48' E 016°33'0 0.0
2018-May-17 02:30N 68°48' E 016°33'0 0.0
2018-May-17 01:59N 68°48' E 016°33'0 0.0
2018-May-17 01:26N 68°48' E 016°33'0 0.0
2018-May-17 00:59N 68°48' E 016°33'0 0.0
2018-May-17 00:29N 68°48' E 016°33'0 0.0
2018-May-16 23:59N 68°48' E 016°33'0 0.0
2018-May-16 23:31N 68°48' E 016°33'0 0.0
2018-May-16 23:01N 68°48' E 016°33'0 0.0
2018-May-16 22:29N 68°48' E 016°33'0 0.0
2018-May-16 21:59N 68°48' E 016°33'0 0.0
2018-May-16 21:30N 68°48' E 016°33'0 0.0
2018-May-16 21:00N 68°48' E 016°33'0 0.0
2018-May-16 20:28N 68°48' E 016°33'0 0.0
2018-May-16 19:58N 68°48' E 016°33'0 0.0
2018-May-16 19:28N 68°48' E 016°33'0 0.0
2018-May-16 19:00N 68°48' E 016°33'0 0.0
2018-May-16 18:29N 68°48' E 016°33'0 0.0
2018-May-16 18:00N 68°48' E 016°33'2 3.6
2018-May-16 17:30N 68°49' E 016°35'4 7.3
2018-May-16 17:00N 68°53' E 016°39'4 7.3
2018-May-16 16:30N 68°56' E 016°39'3 6.8
2018-May-16 16:00N 68°60' E 016°37'2 4.5
2018-May-16 15:29N 69°01' E 016°33'0 0.0
2018-May-16 14:59N 69°01' E 016°33'0 0.0
2018-May-16 14:28N 69°01' E 016°33'0 0.0
2018-May-16 13:58N 69°01' E 016°33'2 3.5
2018-May-16 13:30N 68°60' E 016°36'510.3
2018-May-16 13:00N 68°55' E 016°39'510.2
2018-May-16 12:30N 68°50' E 016°37'2 4.7
2018-May-16 11:59N 68°48' E 016°34'1 1.5
2018-May-16 11:29N 68°49' E 016°34'1 2.2
2018-May-16 10:59N 68°48' E 016°33'0 0.0
2018-May-16 10:28N 68°48' E 016°33'0 0.0
2018-May-16 09:59N 68°48' E 016°33'0 0.0
2018-May-16 09:28N 68°48' E 016°33'0 0.0
2018-May-16 08:58N 68°48' E 016°33'0 0.0
2018-May-16 08:28N 68°48' E 016°33'0 0.0
2018-May-16 07:58N 68°48' E 016°33'0 0.0
2018-May-16 07:28N 68°48' E 016°33'0 0.0
2018-May-16 07:00N 68°48' E 016°33'0 0.0
2018-May-16 06:29N 68°48' E 016°33'0 0.0
2018-May-16 06:00N 68°48' E 016°33'3 5.8
2018-May-16 05:30N 68°50' E 016°36'4 8.2
2018-May-16 05:00N 68°53' E 016°27'4 8.3
2018-May-16 04:30N 68°55' E 016°18'4 8.4
2018-May-16 03:59N 68°57' E 016°07'4 8.6
2018-May-16 03:30N 68°59' E 015°56'4 8.4
2018-May-16 02:59N 68°59' E 015°44'3 6.9
2018-May-16 02:29N 68°57' E 015°36'4 8.0
2018-May-16 01:59N 68°53' E 015°32'4 8.5
2018-May-16 01:30N 68°49' E 015°27'4 8.5
2018-May-16 00:58N 68°45' E 015°26'4 8.7
2018-May-16 00:30N 68°41' E 015°26'4 8.5
2018-May-16 00:00N 68°37' E 015°21'1 2.8
2018-May-15 23:29N 68°36' E 015°20'0 0.0
2018-May-15 23:00N 68°36' E 015°20'3 6.5
2018-May-15 22:29N 68°39' E 015°23'510.3
2018-May-15 22:00N 68°43' E 015°25'510.4
2018-May-15 21:30N 68°49' E 015°26'510.2
2018-May-15 21:00N 68°53' E 015°32'5 9.7
2018-May-15 20:30N 68°58' E 015°38'5 9.6
2018-May-15 20:00N 68°59' E 015°51'5 9.9
2018-May-15 19:31N 68°58' E 016°04'510.0
2018-May-15 18:58N 68°56' E 016°18'5 9.7
2018-May-15 18:30N 68°53' E 016°28'5 9.7
2018-May-15 18:00N 68°50' E 016°39'510.0
2018-May-15 17:30N 68°45' E 016°41'510.0
2018-May-15 17:00N 68°40' E 016°39'5 9.5
2018-May-15 16:30N 68°36' E 016°33'4 8.0
2018-May-15 15:59N 68°32' E 016°38'0 0.0
2018-May-15 15:29N 68°32' E 016°38'0 0.0
2018-May-15 14:58N 68°32' E 016°38'0 0.0
2018-May-15 14:29N 68°32' E 016°38'0 0.0
2018-May-15 14:00N 68°32' E 016°38'0 0.0
2018-May-15 13:30N 68°32' E 016°38'0 0.0
2018-May-15 12:59N 68°32' E 016°38'0 0.0
2018-May-15 12:30N 68°32' E 016°38'2 3.8
2018-May-15 12:00N 68°34' E 016°34'4 7.1
2018-May-15 11:29N 68°38' E 016°35'3 7.2
2018-May-15 11:00N 68°41' E 016°39'4 8.3
2018-May-15 10:30N 68°44' E 016°45'4 8.5
2018-May-15 10:00N 68°48' E 016°51'4 8.3
2018-May-15 09:29N 68°51' E 016°57'4 7.9
2018-May-15 09:00N 68°55' E 017°03'4 7.6
2018-May-15 08:30N 68°58' E 017°10'4 7.8
2018-May-15 08:00N 69°01' E 017°16'4 7.7
2018-May-15 07:30N 69°04' E 017°22'4 7.2
2018-May-15 07:00N 69°06' E 017°30'4 7.7
2018-May-15 06:30N 69°08' E 017°40'4 7.8
2018-May-15 06:00N 69°09' E 017°50'4 8.3
2018-May-15 05:30N 69°11' E 018°01'4 7.9
2018-May-15 04:59N 69°15' E 017°58'4 8.2
2018-May-15 04:28N 69°19' E 018°00'4 7.6
2018-May-15 04:00N 69°23' E 018°05'4 8.4
2018-May-15 03:30N 69°27' E 018°07'4 7.5
2018-May-15 03:00N 69°30' E 018°14'4 8.9
2018-May-15 02:30N 69°31' E 018°26'4 8.9
2018-May-15 02:00N 69°33' E 018°38'510.1
2018-May-15 01:30N 69°35' E 018°50'5 9.2
2018-May-15 01:00N 69°39' E 018°58'4 8.8
2018-May-15 00:30N 69°43' E 019°04'4 8.3
2018-May-15 00:00N 69°46' E 019°11'4 8.4
2018-May-14 23:30N 69°48' E 019°23'4 8.5
2018-May-14 23:00N 69°49' E 019°35'4 7.4
2018-May-14 22:30N 69°48' E 019°45'4 8.6
2018-May-14 22:00N 69°44' E 019°45'4 8.8
2018-May-14 21:30N 69°40' E 019°45'3 6.4
2018-May-14 21:00N 69°37' E 019°44'0 0.0
2018-May-14 20:29N 69°37' E 019°44'0 0.0
2018-May-14 19:59N 69°37' E 019°44'0 0.0
2018-May-14 19:29N 69°37' E 019°44'0 0.0
2018-May-14 18:58N 69°37' E 019°44'0 0.0
2018-May-14 18:29N 69°37' E 019°44'0 0.0
2018-May-14 18:00N 69°37' E 019°44'1 1.2
2018-May-14 17:30N 69°37' E 019°44'2 3.8
2018-May-14 17:00N 69°39' E 019°45'4 7.7
2018-May-14 16:30N 69°43' E 019°45'4 7.4
2018-May-14 15:59N 69°47' E 019°45'3 6.1
2018-May-14 15:29N 69°49' E 019°42'4 7.1
2018-May-14 15:00N 69°49' E 019°32'4 7.2
2018-May-14 14:30N 69°48' E 019°22'4 7.4
2018-May-14 14:00N 69°46' E 019°12'4 7.2
2018-May-14 13:30N 69°44' E 019°04'4 7.4
2018-May-14 13:00N 69°40' E 019°00'3 7.1
2018-May-14 12:30N 69°37' E 018°55'4 7.8
2018-May-14 11:59N 69°33' E 018°56'2 4.3
2018-May-14 11:29N 69°32' E 019°01'0 0.0
2018-May-14 11:00N 69°32' E 019°01'0 0.0
2018-May-14 10:30N 69°32' E 019°01'0 0.0
2018-May-14 10:00N 69°32' E 019°01'0 0.0
2018-May-14 09:30N 69°32' E 019°01'0 0.0
2018-May-14 09:00N 69°32' E 019°01'0 0.0
2018-May-14 08:30N 69°32' E 019°01'0 0.0
2018-May-14 08:00N 69°32' E 019°01'  
Track history (hours):
 
Tides and Currents Weather Stations Pressure Air Temp Water Temp Dewpoint Dewpoint Depression Visibility Wind Speed Wind Dir Waves Ship Positions

Kyst

Last reported at 2018-May-24 07:59 UTC. Time now 2018-May-24 08:05 UTC.
Position N 65°51' E 013°11'.

Length 48 m; draft 4.2 m.

Type: Cargo ship. MMSI: 259336000.

Date/timePositionNaut miles runAvg speedWind from/ knotsBaromVisibWave heightAir tempDewpointWater temp
2018-May-24 07:59N 65°51' E 013°11'0 0.0
2018-May-24 07:29N 65°51' E 013°11'0 0.0
2018-May-24 06:59N 65°51' E 013°11'0 0.0
2018-May-24 06:30N 65°51' E 013°11'0 0.2
2018-May-24 06:00N 65°51' E 013°11'3 7.1
2018-May-24 05:30N 65°54' E 013°07'4 7.6
2018-May-24 05:00N 65°56' E 012°59'4 6.9
2018-May-24 04:29N 65°59' E 012°52'3 6.6
2018-May-24 03:59N 65°57' E 012°45'3 6.9
2018-May-24 03:30N 65°55' E 012°38'3 6.8
2018-May-24 03:00N 65°52' E 012°34'3 6.9
2018-May-24 02:30N 65°49' E 012°29'3 7.1
2018-May-24 02:00N 65°47' E 012°23'3 6.6
2018-May-24 01:30N 65°44' E 012°18'3 6.6
2018-May-24 01:00N 65°41' E 012°16'4 7.3
2018-May-24 00:30N 65°38' E 012°15'3 6.9
2018-May-24 00:00N 65°34' E 012°14'4 7.3
2018-May-23 23:29N 65°30' E 012°12'3 6.0
2018-May-23 23:00N 65°28' E 012°11'4 8.1
2018-May-23 22:30N 65°24' E 012°07'4 7.8
2018-May-23 22:00N 65°20' E 012°02'4 8.1
2018-May-23 21:30N 65°17' E 011°58'4 8.7
2018-May-23 21:00N 65°13' E 011°55'4 8.3
2018-May-23 20:30N 65°12' E 012°05'5 9.0
2018-May-23 20:00N 65°12' E 012°16'8 0.5
2018-May-23 04:20N 65°07' E 012°30'3 6.7
2018-May-23 03:53N 65°09' E 012°23'3 8.3
2018-May-23 03:29N 65°11' E 012°18'4 7.6
2018-May-23 03:01N 65°13' E 012°11'4 8.2
2018-May-23 02:30N 65°12' E 012°01'3 6.2
2018-May-23 02:01N 65°14' E 011°55'4 8.6
2018-May-23 01:30N 65°18' E 011°58'4 9.0
2018-May-23 01:00N 65°22' E 012°04'5 9.2
2018-May-23 00:30N 65°26' E 012°09'4 7.3
2018-May-23 00:00N 65°29' E 012°13'4 8.5
2018-May-22 23:30N 65°33' E 012°13'4 8.8
2018-May-22 23:01N 65°37' E 012°15'5 8.9
2018-May-22 22:30N 65°42' E 012°17'5 9.0
2018-May-22 22:00N 65°46' E 012°21'5 9.5
2018-May-22 21:29N 65°50' E 012°29'5 9.4
2018-May-22 20:59N 65°54' E 012°36'4 9.1
2018-May-22 20:30N 65°57' E 012°43'4 8.7
2018-May-22 20:00N 65°58' E 012°53'4 8.9
2018-May-22 19:30N 65°56' E 013°02'4 8.6
2018-May-22 18:59N 65°53' E 013°09'2 3.6
2018-May-22 18:30N 65°51' E 013°11'0 0.0
2018-May-22 17:59N 65°51' E 013°11'0 0.0
2018-May-22 17:30N 65°51' E 013°11'0 0.0
2018-May-22 17:00N 65°51' E 013°11'0 0.0
2018-May-22 16:27N 65°51' E 013°11'0 0.0
2018-May-22 15:54N 65°51' E 013°11'0 0.0
2018-May-22 15:29N 65°51' E 013°11'0 0.0
2018-May-22 15:00N 65°51' E 013°11'0 0.0
2018-May-22 14:29N 65°51' E 013°11'0 0.0
2018-May-22 14:00N 65°51' E 013°11'0 0.0
2018-May-22 13:30N 65°51' E 013°11'0 0.1
2018-May-22 12:58N 65°51' E 013°11'0 0.0
2018-May-22 12:28N 65°51' E 013°11'0 0.0
2018-May-22 12:01N 65°51' E 013°11'0 0.0
2018-May-22 11:31N 65°51' E 013°11'0 0.0
2018-May-22 10:58N 65°51' E 013°11'0 0.0
2018-May-22 10:31N 65°51' E 013°11'0 0.0
2018-May-22 09:56N 65°51' E 013°11'0 0.0
2018-May-22 09:30N 65°51' E 013°11'0 0.0
2018-May-22 09:00N 65°51' E 013°11'1 2.0
2018-May-22 08:30N 65°52' E 013°10'3 6.4
2018-May-22 08:00N 65°55' E 013°06'4 7.1
2018-May-22 07:29N 65°57' E 012°58'3 6.2
2018-May-22 06:59N 65°59' E 012°54'3 6.5
2018-May-22 06:29N 66°02' E 012°56'3 6.1
2018-May-22 06:00N 66°03' E 012°49'3 6.4
2018-May-22 05:29N 66°02' E 012°41'2 3.7
2018-May-22 05:00N 66°04' E 012°39'3 6.3
2018-May-22 04:29N 66°06' E 012°44'3 6.2
2018-May-22 03:59N 66°09' E 012°48'3 6.0
2018-May-22 03:29N 66°12' E 012°51'3 6.5
2018-May-22 03:00N 66°15' E 012°54'3 6.5
2018-May-22 02:30N 66°18' E 012°55'3 6.3
2018-May-22 02:00N 66°21' E 012°57'3 5.6
2018-May-22 01:29N 66°24' E 012°58'3 6.1
2018-May-22 01:00N 66°27' E 012°59'3 6.2
2018-May-22 00:30N 66°30' E 012°59'3 5.5
2018-May-22 00:00N 66°32' E 012°58'3 6.3
2018-May-21 23:30N 66°34' E 013°05'3 6.5
2018-May-21 22:59N 66°38' E 013°05'3 6.7
2018-May-21 22:30N 66°41' E 013°08'3 6.6
2018-May-21 22:00N 66°44' E 013°11'3 6.2
2018-May-21 21:29N 66°47' E 013°14'3 6.6
2018-May-21 21:00N 66°50' E 013°16'3 6.6
2018-May-21 20:30N 66°52' E 013°21'3 6.6
2018-May-21 20:00N 66°55' E 013°27'3 5.7
2018-May-21 19:30N 66°57' E 013°29'3 6.1
2018-May-21 19:00N 66°59' E 013°35'3 6.5
2018-May-21 18:30N 67°01' E 013°42'3 6.6
2018-May-21 18:00N 67°03' E 013°49'3 6.6
2018-May-21 17:30N 67°05' E 013°55'3 6.4
2018-May-21 17:00N 67°07' E 014°01'3 6.1
2018-May-21 16:30N 67°10' E 014°04'3 5.5
2018-May-21 16:00N 67°12' E 014°09'3 6.1
2018-May-21 15:30N 67°15' E 014°14'3 6.1
2018-May-21 15:00N 67°16' E 014°20'2 3.3
2018-May-21 14:29N 67°18' E 014°23'0 0.0
2018-May-21 14:00N 67°18' E 014°23'0 0.0
2018-May-21 13:29N 67°18' E 014°23'0 0.0
2018-May-21 12:58N 67°18' E 014°23'0 0.0
2018-May-21 12:29N 67°18' E 014°23'0 0.0
2018-May-21 12:01N 67°18' E 014°23'0 0.0
2018-May-21 11:29N 67°18' E 014°23'0 0.0
2018-May-21 11:01N 67°18' E 014°23'0 0.0
2018-May-21 10:30N 67°18' E 014°23'0 0.6
2018-May-21 09:58N 67°17' E 014°24'0 0.0
2018-May-21 09:31N 67°17' E 014°24'0 0.0
2018-May-21 09:00N 67°17' E 014°24'0 0.0
2018-May-21 08:31N 67°17' E 014°24'0 0.2
2018-May-21 08:01N 67°17' E 014°24'2 3.3
2018-May-21 07:30N 67°19' E 014°23'4 7.1
2018-May-21 07:00N 67°22' E 014°28'4 7.1
2018-May-21 06:30N 67°25' E 014°32'3 6.9
2018-May-21 06:00N 67°28' E 014°36'3 6.2
2018-May-21 05:30N 67°31' E 014°40'4 7.2
2018-May-21 05:00N 67°34' E 014°45'3 6.7
2018-May-21 04:30N 67°38' E 014°46'4 7.1
2018-May-21 04:00N 67°41' E 014°42'3 6.6
2018-May-21 03:30N 67°44' E 014°42'3 5.9
2018-May-21 03:00N 67°46' E 014°36'2 5.0
2018-May-21 02:30N 67°48' E 014°33'3 6.5
2018-May-21 02:00N 67°50' E 014°38'3 6.6
2018-May-21 01:29N 67°53' E 014°44'3 6.9
2018-May-21 01:00N 67°57' E 014°44'3 6.2
2018-May-21 00:30N 67°60' E 014°45'3 5.7
2018-May-20 23:59N 68°02' E 014°47'3 5.5
2018-May-20 23:28N 68°05' E 014°48'3 5.4
2018-May-20 23:00N 68°08' E 014°50'3 5.2
2018-May-20 22:30N 68°10' E 014°53'3 5.7
2018-May-20 22:00N 68°13' E 014°55'3 5.9
2018-May-20 21:29N 68°16' E 014°57'4 7.2
2018-May-20 21:00N 68°19' E 014°58'4 7.7
2018-May-20 20:30N 68°23' E 015°04'4 8.7
2018-May-20 19:59N 68°26' E 015°10'3 6.9
2018-May-20 19:30N 68°30' E 015°12'4 7.1
2018-May-20 18:59N 68°33' E 015°10'4 7.2
2018-May-20 18:30N 68°36' E 015°18'1 1.5
2018-May-20 17:59N 68°36' E 015°20'0 0.0
2018-May-20 17:28N 68°36' E 015°20'0 0.0
2018-May-20 16:58N 68°36' E 015°20'0 0.0
2018-May-20 16:30N 68°36' E 015°20'4 7.9
2018-May-20 16:00N 68°39' E 015°24'4 8.1
2018-May-20 15:30N 68°43' E 015°26'4 7.7
2018-May-20 15:00N 68°47' E 015°26'4 7.9
2018-May-20 14:30N 68°51' E 015°29'4 8.4
2018-May-20 14:00N 68°55' E 015°35'4 7.7
2018-May-20 13:30N 68°58' E 015°39'4 7.7
2018-May-20 13:00N 68°59' E 015°50'5 9.3
2018-May-20 12:30N 68°58' E 016°02'5 9.5
2018-May-20 12:00N 68°56' E 016°15'5 9.6
2018-May-20 11:30N 68°53' E 016°25'4 8.9
2018-May-20 11:00N 68°52' E 016°36'5 9.6
2018-May-20 10:30N 68°47' E 016°43'5 9.9
2018-May-20 09:59N 68°43' E 016°49'2 3.6
2018-May-20 09:30N 68°43' E 016°54'5 9.1
2018-May-20 09:00N 68°45' E 017°05'4 7.9
2018-May-20 08:29N 68°48' E 017°10'3 6.4
2018-May-20 07:59N 68°50' E 017°04'0 0.0
2018-May-20 07:31N 68°50' E 017°04'0 0.0
2018-May-20 07:00N 68°50' E 017°04'0 0.0
2018-May-20 06:28N 68°50' E 017°04'0 0.0
2018-May-20 05:59N 68°50' E 017°04'0 0.0
2018-May-20 05:26N 68°50' E 017°04'0 0.0
2018-May-20 05:00N 68°50' E 017°04'0 0.0
2018-May-20 04:28N 68°50' E 017°04'0 0.0
2018-May-20 04:00N 68°50' E 017°04'0 0.0
2018-May-20 03:30N 68°50' E 017°04'0 0.0
2018-May-20 03:00N 68°50' E 017°04'0 0.0
2018-May-20 02:31N 68°50' E 017°04'0 0.0
2018-May-20 02:00N 68°50' E 017°04'0 0.0
2018-May-20 01:31N 68°50' E 017°04'0 0.0
2018-May-20 00:59N 68°50' E 017°04'0 0.0
2018-May-20 00:25N 68°50' E 017°04'0 0.0
2018-May-20 00:01N 68°50' E 017°04'0 0.0
2018-May-19 23:31N 68°50' E 017°04'0 0.0
2018-May-19 23:00N 68°50' E 017°04'0 0.0
2018-May-19 22:30N 68°50' E 017°04'0 0.0
2018-May-19 22:01N 68°50' E 017°04'0 0.0
2018-May-19 21:28N 68°50' E 017°04'0 0.0
2018-May-19 20:59N 68°50' E 017°04'0 0.0
2018-May-19 20:30N 68°50' E 017°04'0 0.0
2018-May-19 20:01N 68°50' E 017°04'0 0.0
2018-May-19 19:31N 68°50' E 017°04'0 0.0
2018-May-19 18:58N 68°50' E 017°04'0 0.0
2018-May-19 18:30N 68°50' E 017°04'0 0.0
2018-May-19 18:00N 68°50' E 017°04'0 0.0
2018-May-19 17:30N 68°50' E 017°04'1 2.6
2018-May-19 17:00N 68°49' E 017°07'4 8.4
2018-May-19 16:29N 68°48' E 017°18'4 9.1
2018-May-19 16:00N 68°51' E 017°27'5 9.3
2018-May-19 15:30N 68°54' E 017°37'2 4.2
2018-May-19 14:58N 68°54' E 017°43'0 0.0
2018-May-19 14:27N 68°54' E 017°43'0 0.0
2018-May-19 13:59N 68°54' E 017°43'0 0.0
2018-May-19 13:18N 68°54' E 017°43'0 0.0
2018-May-19 12:58N 68°54' E 017°43'0 0.0
2018-May-19 12:31N 68°54' E 017°43'0 0.0
2018-May-19 11:59N 68°54' E 017°43'0 0.0
2018-May-19 11:26N 68°54' E 017°43'0 0.0
2018-May-19 10:59N 68°54' E 017°43'0 0.0
2018-May-19 10:30N 68°54' E 017°43'0 0.0
2018-May-19 10:00N 68°54' E 017°43'2 4.2
2018-May-19 09:30N 68°54' E 017°38'5 9.2
2018-May-19 09:00N 68°51' E 017°28'4 9.0
2018-May-19 08:30N 68°48' E 017°19'4 9.0
2018-May-19 08:00N 68°45' E 017°09'4 8.8
2018-May-19 07:30N 68°44' E 016°57'4 7.5
2018-May-19 07:00N 68°44' E 016°47'4 7.7
2018-May-19 06:30N 68°47' E 016°40'3 5.9
2018-May-19 06:00N 68°48' E 016°33'3 5.3
2018-May-19 05:30N 68°51' E 016°32'4 8.5
2018-May-19 05:00N 68°54' E 016°23'4 8.0
2018-May-19 04:30N 68°56' E 016°15'4 7.7
2018-May-19 04:00N 68°58' E 016°04'4 8.0
2018-May-19 03:29N 68°59' E 015°54'4 8.7
2018-May-19 03:00N 68°58' E 015°42'4 8.0
2018-May-19 02:30N 68°55' E 015°35'5 8.6
2018-May-19 01:59N 68°51' E 015°30'4 8.9
2018-May-19 01:30N 68°47' E 015°26'4 9.0
2018-May-19 01:00N 68°43' E 015°26'4 8.4
2018-May-19 00:29N 68°38' E 015°23'3 6.0
2018-May-18 23:58N 68°36' E 015°20'0 0.0
2018-May-18 23:31N 68°36' E 015°20'0 0.0
2018-May-18 23:00N 68°36' E 015°20'1 1.1
2018-May-18 22:29N 68°36' E 015°20'5 9.7
2018-May-18 22:00N 68°40' E 015°25'510.0
2018-May-18 21:29N 68°46' E 015°26'4 9.3
2018-May-18 21:00N 68°50' E 015°28'5 9.4
2018-May-18 20:29N 68°54' E 015°34'4 8.6
2018-May-18 20:00N 68°58' E 015°40'4 8.6
2018-May-18 19:30N 68°59' E 015°51'5 9.3
2018-May-18 19:00N 68°58' E 016°04'5 9.6
2018-May-18 18:30N 68°56' E 016°16'5 9.5
2018-May-18 17:58N 68°53' E 016°27'4 9.0
2018-May-18 17:30N 68°50' E 016°36'5 9.7
2018-May-18 17:00N 68°45' E 016°38'5 9.4
2018-May-18 16:29N 68°40' E 016°39'511.0
2018-May-18 16:00N 68°35' E 016°33'3 6.8
2018-May-18 15:29N 68°32' E 016°38'0 0.0
2018-May-18 14:59N 68°32' E 016°38'0 0.0
2018-May-18 14:29N 68°32' E 016°38'0 0.0
2018-May-18 13:58N 68°32' E 016°38'0 0.0
2018-May-18 13:29N 68°32' E 016°38'0 0.0
2018-May-18 12:58N 68°32' E 016°38'0 0.0
2018-May-18 12:30N 68°32' E 016°38'3 5.2
2018-May-18 12:00N 68°35' E 016°33'4 7.5
2018-May-18 11:29N 68°38' E 016°36'4 7.7
2018-May-18 10:59N 68°42' E 016°40'4 7.4
2018-May-18 10:30N 68°45' E 016°37'4 7.8
2018-May-18 10:00N 68°49' E 016°36'4 8.0
2018-May-18 09:30N 68°52' E 016°29'5 9.1
2018-May-18 09:00N 68°55' E 016°19'4 8.6
2018-May-18 08:30N 68°57' E 016°08'4 8.5
2018-May-18 08:00N 68°58' E 015°57'4 8.5
2018-May-18 07:30N 68°59' E 015°45'4 7.6
2018-May-18 06:58N 68°56' E 015°36'4 8.4
2018-May-18 06:29N 68°53' E 015°32'4 8.6
2018-May-18 06:00N 68°49' E 015°27'5 8.7
2018-May-18 05:29N 68°44' E 015°25'4 8.9
2018-May-18 04:59N 68°40' E 015°25'4 8.6
2018-May-18 04:30N 68°36' E 015°20'1 1.2
2018-May-18 04:01N 68°36' E 015°20'0 0.0
2018-May-18 03:31N 68°36' E 015°20'0 0.0
2018-May-18 03:00N 68°36' E 015°20'3 5.9
2018-May-18 02:29N 68°38' E 015°23'4 7.8
2018-May-18 02:00N 68°42' E 015°26'4 8.9
2018-May-18 01:30N 68°46' E 015°26'4 8.7
2018-May-18 01:00N 68°51' E 015°29'4 8.8
2018-May-18 00:30N 68°55' E 015°35'4 8.0
2018-May-18 00:00N 68°58' E 015°40'4 8.4
2018-May-17 23:30N 68°59' E 015°51'4 8.9
2018-May-17 23:00N 68°58' E 016°03'5 9.2
2018-May-17 22:30N 68°56' E 016°15'5 9.1
2018-May-17 22:00N 68°53' E 016°25'4 8.0
2018-May-17 21:30N 68°51' E 016°34'3 6.4
2018-May-17 21:00N 68°48' E 016°33'0 0.1
2018-May-17 20:31N 68°48' E 016°33'0 0.0
2018-May-17 19:59N 68°48' E 016°33'0 0.0
2018-May-17 19:29N 68°48' E 016°33'0 0.0
2018-May-17 18:57N 68°48' E 016°33'0 0.0
2018-May-17 18:30N 68°48' E 016°33'0 0.0
2018-May-17 17:58N 68°48' E 016°33'0 0.0
2018-May-17 17:30N 68°48' E 016°33'0 0.0
2018-May-17 16:58N 68°48' E 016°33'0 0.0
2018-May-17 16:30N 68°48' E 016°33'0 0.0
2018-May-17 15:58N 68°48' E 016°33'0 0.0
2018-May-17 15:30N 68°48' E 016°33'0 0.0
2018-May-17 15:00N 68°48' E 016°33'0 0.0
2018-May-17 14:28N 68°48' E 016°33'0 0.0
2018-May-17 14:01N 68°48' E 016°33'0 0.0
2018-May-17 13:28N 68°48' E 016°33'0 0.0
2018-May-17 12:58N 68°48' E 016°33'0 0.0
2018-May-17 12:28N 68°48' E 016°33'0 0.0
2018-May-17 12:01N 68°48' E 016°33'0 0.0
2018-May-17 11:29N 68°48' E 016°33'0 0.0
2018-May-17 11:00N 68°48' E 016°33'0 0.0
2018-May-17 10:28N 68°48' E 016°33'0 0.0
2018-May-17 09:58N 68°48' E 016°33'0 0.0
2018-May-17 09:28N 68°48' E 016°33'0 0.0
2018-May-17 09:00N 68°48' E 016°33'0 0.0
2018-May-17 08:30N 68°48' E 016°33'0 0.0
2018-May-17 08:00N 68°48' E 016°33'0 0.0
2018-May-17 07:29N 68°48' E 016°33'0 0.0
2018-May-17 06:54N 68°48' E 016°33'0 0.0
2018-May-17 06:30N 68°48' E 016°33'0 0.0
2018-May-17 05:59N 68°48' E 016°33'0 0.0
2018-May-17 05:28N 68°48' E 016°33'0 0.0
2018-May-17 05:00N 68°48' E 016°33'0 0.0
2018-May-17 04:29N 68°48' E 016°33'0 0.0
2018-May-17 04:00N 68°48' E 016°33'0 0.0
2018-May-17 03:30N 68°48' E 016°33'0 0.0
2018-May-17 03:00N 68°48' E 016°33'0 0.0
2018-May-17 02:30N 68°48' E 016°33'0 0.0
2018-May-17 01:59N 68°48' E 016°33'0 0.0
2018-May-17 01:26N 68°48' E 016°33'0 0.0
2018-May-17 00:59N 68°48' E 016°33'0 0.0
2018-May-17 00:29N 68°48' E 016°33'0 0.0
2018-May-16 23:59N 68°48' E 016°33'0 0.0
2018-May-16 23:31N 68°48' E 016°33'0 0.0
2018-May-16 23:01N 68°48' E 016°33'0 0.0
2018-May-16 22:29N 68°48' E 016°33'0 0.0
2018-May-16 21:59N 68°48' E 016°33'0 0.0
2018-May-16 21:30N 68°48' E 016°33'0 0.0
2018-May-16 21:00N 68°48' E 016°33'0 0.0
2018-May-16 20:28N 68°48' E 016°33'0 0.0
2018-May-16 19:58N 68°48' E 016°33'0 0.0
2018-May-16 19:28N 68°48' E 016°33'0 0.0
2018-May-16 19:00N 68°48' E 016°33'0 0.0
2018-May-16 18:29N 68°48' E 016°33'0 0.0
2018-May-16 18:00N 68°48' E 016°33'2 3.6
2018-May-16 17:30N 68°49' E 016°35'4 7.3
2018-May-16 17:00N 68°53' E 016°39'4 7.3
2018-May-16 16:30N 68°56' E 016°39'3 6.8
2018-May-16 16:00N 68°60' E 016°37'2 4.5
2018-May-16 15:29N 69°01' E 016°33'0 0.0
2018-May-16 14:59N 69°01' E 016°33'0 0.0
2018-May-16 14:28N 69°01' E 016°33'0 0.0
2018-May-16 13:58N 69°01' E 016°33'2 3.5
2018-May-16 13:30N 68°60' E 016°36'510.3
2018-May-16 13:00N 68°55' E 016°39'510.2
2018-May-16 12:30N 68°50' E 016°37'2 4.7
2018-May-16 11:59N 68°48' E 016°34'1 1.5
2018-May-16 11:29N 68°49' E 016°34'1 2.2
2018-May-16 10:59N 68°48' E 016°33'0 0.0
2018-May-16 10:28N 68°48' E 016°33'0 0.0
2018-May-16 09:59N 68°48' E 016°33'0 0.0
2018-May-16 09:28N 68°48' E 016°33'0 0.0
2018-May-16 08:58N 68°48' E 016°33'0 0.0
2018-May-16 08:28N 68°48' E 016°33'0 0.0
2018-May-16 07:58N 68°48' E 016°33'0 0.0
2018-May-16 07:28N 68°48' E 016°33'0 0.0
2018-May-16 07:00N 68°48' E 016°33'0 0.0
2018-May-16 06:29N 68°48' E 016°33'0 0.0
2018-May-16 06:00N 68°48' E 016°33'3 5.8
2018-May-16 05:30N 68°50' E 016°36'4 8.2
2018-May-16 05:00N 68°53' E 016°27'4 8.3
2018-May-16 04:30N 68°55' E 016°18'4 8.4
2018-May-16 03:59N 68°57' E 016°07'4 8.6
2018-May-16 03:30N 68°59' E 015°56'4 8.4
2018-May-16 02:59N 68°59' E 015°44'3 6.9
2018-May-16 02:29N 68°57' E 015°36'4 8.0
2018-May-16 01:59N 68°53' E 015°32'4 8.5
2018-May-16 01:30N 68°49' E 015°27'4 8.5
2018-May-16 00:58N 68°45' E 015°26'4 8.7
2018-May-16 00:30N 68°41' E 015°26'4 8.5
2018-May-16 00:00N 68°37' E 015°21'1 2.8
2018-May-15 23:29N 68°36' E 015°20'0 0.0
2018-May-15 23:00N 68°36' E 015°20'3 6.5
2018-May-15 22:29N 68°39' E 015°23'510.3
2018-May-15 22:00N 68°43' E 015°25'510.4
2018-May-15 21:30N 68°49' E 015°26'510.2
2018-May-15 21:00N 68°53' E 015°32'5 9.7
2018-May-15 20:30N 68°58' E 015°38'5 9.6
2018-May-15 20:00N 68°59' E 015°51'5 9.9
2018-May-15 19:31N 68°58' E 016°04'510.0
2018-May-15 18:58N 68°56' E 016°18'5 9.7
2018-May-15 18:30N 68°53' E 016°28'5 9.7
2018-May-15 18:00N 68°50' E 016°39'510.0
2018-May-15 17:30N 68°45' E 016°41'510.0
2018-May-15 17:00N 68°40' E 016°39'5 9.5
2018-May-15 16:30N 68°36' E 016°33'4 8.0
2018-May-15 15:59N 68°32' E 016°38'0 0.0
2018-May-15 15:29N 68°32' E 016°38'0 0.0
2018-May-15 14:58N 68°32' E 016°38'0 0.0
2018-May-15 14:29N 68°32' E 016°38'0 0.0
2018-May-15 14:00N 68°32' E 016°38'0 0.0
2018-May-15 13:30N 68°32' E 016°38'0 0.0
2018-May-15 12:59N 68°32' E 016°38'0 0.0
2018-May-15 12:30N 68°32' E 016°38'2 3.8
2018-May-15 12:00N 68°34' E 016°34'4 7.1
2018-May-15 11:29N 68°38' E 016°35'3 7.2
2018-May-15 11:00N 68°41' E 016°39'4 8.3
2018-May-15 10:30N 68°44' E 016°45'4 8.5
2018-May-15 10:00N 68°48' E 016°51'4 8.3
2018-May-15 09:29N 68°51' E 016°57'4 7.9
2018-May-15 09:00N 68°55' E 017°03'4 7.6
2018-May-15 08:30N 68°58' E 017°10'4 7.8
2018-May-15 08:00N 69°01' E 017°16'4 7.7
2018-May-15 07:30N 69°04' E 017°22'4 7.2
2018-May-15 07:00N 69°06' E 017°30'4 7.7
2018-May-15 06:30N 69°08' E 017°40'4 7.8
2018-May-15 06:00N 69°09' E 017°50'4 8.3
2018-May-15 05:30N 69°11' E 018°01'4 7.9
2018-May-15 04:59N 69°15' E 017°58'4 8.2
2018-May-15 04:28N 69°19' E 018°00'4 7.6
2018-May-15 04:00N 69°23' E 018°05'4 8.4
2018-May-15 03:30N 69°27' E 018°07'4 7.5
2018-May-15 03:00N 69°30' E 018°14'4 8.9
2018-May-15 02:30N 69°31' E 018°26'4 8.9
2018-May-15 02:00N 69°33' E 018°38'510.1
2018-May-15 01:30N 69°35' E 018°50'5 9.2
2018-May-15 01:00N 69°39' E 018°58'4 8.8
2018-May-15 00:30N 69°43' E 019°04'4 8.3
2018-May-15 00:00N 69°46' E 019°11'4 8.4
2018-May-14 23:30N 69°48' E 019°23'4 8.5
2018-May-14 23:00N 69°49' E 019°35'4 7.4
2018-May-14 22:30N 69°48' E 019°45'4 8.6
2018-May-14 22:00N 69°44' E 019°45'4 8.8
2018-May-14 21:30N 69°40' E 019°45'3 6.4
2018-May-14 21:00N 69°37' E 019°44'0 0.0
2018-May-14 20:29N 69°37' E 019°44'0 0.0
2018-May-14 19:59N 69°37' E 019°44'0 0.0
2018-May-14 19:29N 69°37' E 019°44'0 0.0
2018-May-14 18:58N 69°37' E 019°44'0 0.0
2018-May-14 18:29N 69°37' E 019°44'0 0.0
2018-May-14 18:00N 69°37' E 019°44'1 1.2
2018-May-14 17:30N 69°37' E 019°44'2 3.8
2018-May-14 17:00N 69°39' E 019°45'4 7.7
2018-May-14 16:30N 69°43' E 019°45'4 7.4
2018-May-14 15:59N 69°47' E 019°45'3 6.1
2018-May-14 15:29N 69°49' E 019°42'4 7.1
2018-May-14 15:00N 69°49' E 019°32'4 7.2
2018-May-14 14:30N 69°48' E 019°22'4 7.4
2018-May-14 14:00N 69°46' E 019°12'4 7.2
2018-May-14 13:30N 69°44' E 019°04'4 7.4
2018-May-14 13:00N 69°40' E 019°00'3 7.1
2018-May-14 12:30N 69°37' E 018°55'4 7.8
2018-May-14 11:59N 69°33' E 018°56'2 4.3
2018-May-14 11:29N 69°32' E 019°01'0 0.0
2018-May-14 11:00N 69°32' E 019°01'0 0.0
2018-May-14 10:30N 69°32' E 019°01'0 0.0
2018-May-14 10:00N 69°32' E 019°01'0 0.0
2018-May-14 09:30N 69°32' E 019°01'0 0.0
2018-May-14 09:00N 69°32' E 019°01'0 0.0
2018-May-14 08:30N 69°32' E 019°01'0 0.0
2018-May-14 08:00N 69°32' E 019°01'  

Dump ship's entire track history